sensor_id;sensor_type;location;lat;lon;timestamp;pressure;altitude;pressure_sealevel;temperature;humidity
71107;BME280;58763;47.982;11.516;2022-11-15T00:00:50;94094.25;;;5.88;74.79
71107;BME280;58763;47.982;11.516;2022-11-15T00:03:18;94096.72;;;5.94;75.06
71107;BME280;58763;47.982;11.516;2022-11-15T00:05:43;94089.75;;;5.98;74.03
71107;BME280;58763;47.982;11.516;2022-11-15T00:08:09;94088.16;;;6.02;73.35
71107;BME280;58763;47.982;11.516;2022-11-15T00:10:35;94082.78;;;6.02;72.71
71107;BME280;58763;47.982;11.516;2022-11-15T00:13:07;94085.00;;;6.10;71.76
71107;BME280;58763;47.982;11.516;2022-11-15T00:15:40;94080.63;;;5.94;72.12
71107;BME280;58763;47.982;11.516;2022-11-15T00:18:12;94084.59;;;5.87;72.35
71107;BME280;58763;47.982;11.516;2022-11-15T00:20:37;94081.44;;;5.95;72.39
71107;BME280;58763;47.982;11.516;2022-11-15T00:23:04;94077.28;;;5.82;72.60
71107;BME280;58763;47.982;11.516;2022-11-15T00:25:29;94088.28;;;5.81;72.76
71107;BME280;58763;47.982;11.516;2022-11-15T00:27:56;94074.56;;;5.77;73.17
71107;BME280;58763;47.982;11.516;2022-11-15T00:30:22;94077.78;;;5.79;73.19
71107;BME280;58763;47.982;11.516;2022-11-15T00:32:47;94071.34;;;5.75;73.56
71107;BME280;58763;47.982;11.516;2022-11-15T00:35:13;94077.00;;;5.79;73.19
71107;BME280;58763;47.982;11.516;2022-11-15T00:37:38;94074.06;;;5.80;73.33
71107;BME280;58763;47.982;11.516;2022-11-15T00:40:04;94079.94;;;5.77;73.04
71107;BME280;58763;47.982;11.516;2022-11-15T00:42:30;94072.72;;;5.83;72.85
71107;BME280;58763;47.982;11.516;2022-11-15T00:44:55;94085.94;;;5.89;71.33
71107;BME280;58763;47.982;11.516;2022-11-15T00:47:21;94071.91;;;5.82;70.98
71107;BME280;58763;47.982;11.516;2022-11-15T00:49:46;94073.16;;;5.70;71.26
71107;BME280;58763;47.982;11.516;2022-11-15T00:52:11;94075.84;;;5.65;71.24
71107;BME280;58763;47.982;11.516;2022-11-15T00:54:37;94072.81;;;5.56;71.83
71107;BME280;58763;47.982;11.516;2022-11-15T00:57:02;94062.34;;;5.54;72.34
71107;BME280;58763;47.982;11.516;2022-11-15T00:59:28;94053.47;;;5.54;72.60
71107;BME280;58763;47.982;11.516;2022-11-15T01:01:53;94047.59;;;5.57;72.03
71107;BME280;58763;47.982;11.516;2022-11-15T01:04:18;94052.84;;;5.42;72.84
71107;BME280;58763;47.982;11.516;2022-11-15T01:06:44;94044.69;;;5.27;73.56
71107;BME280;58763;47.982;11.516;2022-11-15T01:09:09;94043.25;;;5.14;73.94
71107;BME280;58763;47.982;11.516;2022-11-15T01:11:35;94039.63;;;4.99;73.94
71107;BME280;58763;47.982;11.516;2022-11-15T01:14:00;94033.19;;;4.95;74.46
71107;BME280;58763;47.982;11.516;2022-11-15T01:16:25;94033.69;;;4.92;74.93
71107;BME280;58763;47.982;11.516;2022-11-15T01:18:51;94033.69;;;4.92;75.04
71107;BME280;58763;47.982;11.516;2022-11-15T01:21:18;94032.66;;;4.98;74.08
71107;BME280;58763;47.982;11.516;2022-11-15T01:23:44;94034.28;;;4.99;73.67
71107;BME280;58763;47.982;11.516;2022-11-15T01:26:12;94019.78;;;5.00;72.99
71107;BME280;58763;47.982;11.516;2022-11-15T01:28:40;94025.69;;;4.97;73.18
71107;BME280;58763;47.982;11.516;2022-11-15T01:31:11;94028.91;;;4.99;72.61
71107;BME280;58763;47.982;11.516;2022-11-15T01:33:37;94014.44;;;5.00;71.86
71107;BME280;58763;47.982;11.516;2022-11-15T01:36:22;94011.47;;;4.96;72.56
71107;BME280;58763;47.982;11.516;2022-11-15T01:38:56;94004.81;;;4.99;71.55
71107;BME280;58763;47.982;11.516;2022-11-15T01:41:24;94007.72;;;4.97;71.46
71107;BME280;58763;47.982;11.516;2022-11-15T01:43:55;94006.38;;;4.95;71.61
71107;BME280;58763;47.982;11.516;2022-11-15T01:48:54;93995.19;;;5.03;71.16
71107;BME280;58763;47.982;11.516;2022-11-15T01:51:25;93995.13;;;4.98;71.22
71107;BME280;58763;47.982;11.516;2022-11-15T01:53:55;93983.16;;;5.05;71.22
71107;BME280;58763;47.982;11.516;2022-11-15T01:56:27;93989.38;;;5.11;70.57
71107;BME280;58763;47.982;11.516;2022-11-15T01:58:56;93973.06;;;5.17;69.71
71107;BME280;58763;47.982;11.516;2022-11-15T02:01:25;93969.56;;;5.17;69.71
71107;BME280;58763;47.982;11.516;2022-11-15T02:03:58;93967.69;;;5.17;69.46
71107;BME280;58763;47.982;11.516;2022-11-15T02:06:24;93980.28;;;5.17;69.98
71107;BME280;58763;47.982;11.516;2022-11-15T02:08:50;93971.47;;;5.21;70.18
71107;BME280;58763;47.982;11.516;2022-11-15T02:11:16;93966.91;;;5.22;69.92
71107;BME280;58763;47.982;11.516;2022-11-15T02:13:41;93977.72;;;5.37;69.09
71107;BME280;58763;47.982;11.516;2022-11-15T02:19:23;93963.53;;;5.41;69.10
71107;BME280;58763;47.982;11.516;2022-11-15T02:30:24;93961.53;;;5.17;70.27
71107;BME280;58763;47.982;11.516;2022-11-15T02:33:21;93957.25;;;5.21;69.97
71107;BME280;58763;47.982;11.516;2022-11-15T02:36:05;93956.16;;;5.17;70.10
71107;BME280;58763;47.982;11.516;2022-11-15T02:38:42;93949.75;;;5.18;70.31
71107;BME280;58763;47.982;11.516;2022-11-15T02:41:13;93949.16;;;5.11;70.23
71107;BME280;58763;47.982;11.516;2022-11-15T02:43:46;93945.94;;;5.14;70.51
71107;BME280;58763;47.982;11.516;2022-11-15T02:46:39;93947.63;;;5.20;69.93
71107;BME280;58763;47.982;11.516;2022-11-15T02:49:26;93940.66;;;5.24;69.58
71107;BME280;58763;47.982;11.516;2022-11-15T02:51:54;93942.72;;;5.12;69.81
71107;BME280;58763;47.982;11.516;2022-11-15T02:54:22;93938.72;;;5.14;69.94
71107;BME280;58763;47.982;11.516;2022-11-15T02:56:49;93927.75;;;5.16;69.83
71107;BME280;58763;47.982;11.516;2022-11-15T03:04:56;93925.13;;;5.26;69.58
71107;BME280;58763;47.982;11.516;2022-11-15T03:10:02;93920.84;;;5.25;69.63
71107;BME280;58763;47.982;11.516;2022-11-15T03:12:36;93928.31;;;5.23;69.56
71107;BME280;58763;47.982;11.516;2022-11-15T03:15:10;93921.31;;;5.17;69.87
71107;BME280;58763;47.982;11.516;2022-11-15T03:17:46;93926.91;;;5.10;70.00
71107;BME280;58763;47.982;11.516;2022-11-15T03:20:15;93928.03;;;5.19;69.44
71107;BME280;58763;47.982;11.516;2022-11-15T03:22:44;93913.50;;;5.10;69.55
71107;BME280;58763;47.982;11.516;2022-11-15T03:25:14;93925.09;;;5.16;69.55
71107;BME280;58763;47.982;11.516;2022-11-15T03:27:47;93919.69;;;5.11;69.65
71107;BME280;58763;47.982;11.516;2022-11-15T03:30:13;93918.88;;;5.10;69.51
71107;BME280;58763;47.982;11.516;2022-11-15T03:32:44;93917.81;;;5.16;69.01
71107;BME280;58763;47.982;11.516;2022-11-15T03:35:18;93916.16;;;5.05;69.67
71107;BME280;58763;47.982;11.516;2022-11-15T03:38:11;93914.28;;;5.06;69.73
71107;BME280;58763;47.982;11.516;2022-11-15T03:40:41;93909.97;;;5.05;69.38
71107;BME280;58763;47.982;11.516;2022-11-15T03:43:16;93904.94;;;5.08;69.06
71107;BME280;58763;47.982;11.516;2022-11-15T03:45:51;93902.28;;;5.13;69.05
71107;BME280;58763;47.982;11.516;2022-11-15T03:48:24;93898.78;;;5.13;68.82
71107;BME280;58763;47.982;11.516;2022-11-15T03:50:52;93897.94;;;5.07;68.87
71107;BME280;58763;47.982;11.516;2022-11-15T03:53:17;93898.75;;;5.08;69.01
71107;BME280;58763;47.982;11.516;2022-11-15T03:55:43;93896.91;;;5.13;68.66
71107;BME280;58763;47.982;11.516;2022-11-15T03:58:09;93889.13;;;5.12;68.08
71107;BME280;58763;47.982;11.516;2022-11-15T04:00:34;93893.16;;;5.14;67.85
71107;BME280;58763;47.982;11.516;2022-11-15T04:03:00;93886.19;;;5.13;67.95
71107;BME280;58763;47.982;11.516;2022-11-15T04:05:25;93885.63;;;5.06;68.27
71107;BME280;58763;47.982;11.516;2022-11-15T04:07:51;93878.88;;;4.99;68.34
71107;BME280;58763;47.982;11.516;2022-11-15T04:10:16;93888.78;;;4.98;67.90
71107;BME280;58763;47.982;11.516;2022-11-15T04:12:44;93874.53;;;4.93;68.19
71107;BME280;58763;47.982;11.516;2022-11-15T04:15:13;93873.63;;;4.77;68.46
71107;BME280;58763;47.982;11.516;2022-11-15T04:20:15;93877.13;;;4.77;69.06
71107;BME280;58763;47.982;11.516;2022-11-15T04:23:01;93872.25;;;4.74;69.10
71107;BME280;58763;47.982;11.516;2022-11-15T04:25:46;93871.72;;;4.72;69.00
71107;BME280;58763;47.982;11.516;2022-11-15T04:28:14;93870.72;;;4.83;68.84
71107;BME280;58763;47.982;11.516;2022-11-15T04:30:40;93871.25;;;4.85;68.80
71107;BME280;58763;47.982;11.516;2022-11-15T04:33:05;93869.13;;;4.82;69.18
71107;BME280;58763;47.982;11.516;2022-11-15T04:35:30;93872.84;;;4.81;68.92
71107;BME280;58763;47.982;11.516;2022-11-15T04:37:58;93868.59;;;4.85;68.91
71107;BME280;58763;47.982;11.516;2022-11-15T04:40:23;93872.16;;;4.96;68.43
71107;BME280;58763;47.982;11.516;2022-11-15T04:42:49;93874.03;;;4.96;67.85
71107;BME280;58763;47.982;11.516;2022-11-15T04:45:14;93863.22;;;4.85;67.89
71107;BME280;58763;47.982;11.516;2022-11-15T04:47:40;93867.03;;;4.89;68.02
71107;BME280;58763;47.982;11.516;2022-11-15T04:50:08;93864.38;;;4.95;68.04
71107;BME280;58763;47.982;11.516;2022-11-15T04:52:33;93862.16;;;4.86;67.69
71107;BME280;58763;47.982;11.516;2022-11-15T04:54:58;93862.03;;;4.66;68.76
71107;BME280;58763;47.982;11.516;2022-11-15T04:57:24;93859.88;;;4.63;68.85
71107;BME280;58763;47.982;11.516;2022-11-15T04:59:49;93856.06;;;4.54;69.19
71107;BME280;58763;47.982;11.516;2022-11-15T05:02:15;93853.13;;;4.56;69.69
71107;BME280;58763;47.982;11.516;2022-11-15T05:04:40;93863.00;;;4.55;69.37
71107;BME280;58763;47.982;11.516;2022-11-15T05:07:05;93845.59;;;4.53;69.68
71107;BME280;58763;47.982;11.516;2022-11-15T05:09:31;93847.16;;;4.49;70.10
71107;BME280;58763;47.982;11.516;2022-11-15T05:11:56;93841.56;;;4.50;70.04
71107;BME280;58763;47.982;11.516;2022-11-15T05:14:22;93843.22;;;4.56;70.07
71107;BME280;58763;47.982;11.516;2022-11-15T05:16:47;93843.72;;;4.53;69.33
71107;BME280;58763;47.982;11.516;2022-11-15T05:19:13;93828.19;;;4.50;69.83
71107;BME280;58763;47.982;11.516;2022-11-15T05:21:39;93829.56;;;4.58;69.46
71107;BME280;58763;47.982;11.516;2022-11-15T05:24:05;93829.19;;;4.44;69.64
71107;BME280;58763;47.982;11.516;2022-11-15T05:26:30;93833.19;;;4.42;69.85
71107;BME280;58763;47.982;11.516;2022-11-15T05:28:57;93827.06;;;4.46;69.73
71107;BME280;58763;47.982;11.516;2022-11-15T05:31:24;93824.66;;;4.45;69.44
71107;BME280;58763;47.982;11.516;2022-11-15T05:33:51;93827.47;;;4.65;68.70
71107;BME280;58763;47.982;11.516;2022-11-15T05:36:35;93822.38;;;4.63;68.32
71107;BME280;58763;47.982;11.516;2022-11-15T05:39:03;93818.53;;;4.49;68.90
71107;BME280;58763;47.982;11.516;2022-11-15T05:41:38;93817.16;;;4.47;69.20
71107;BME280;58763;47.982;11.516;2022-11-15T05:44:07;93815.94;;;4.59;69.21
71107;BME280;58763;47.982;11.516;2022-11-15T05:46:35;93813.00;;;4.61;68.88
71107;BME280;58763;47.982;11.516;2022-11-15T05:49:05;93817.16;;;4.47;68.92
71107;BME280;58763;47.982;11.516;2022-11-15T05:51:32;93813.34;;;4.38;69.54
71107;BME280;58763;47.982;11.516;2022-11-15T05:53:58;93816.66;;;4.50;69.08
71107;BME280;58763;47.982;11.516;2022-11-15T05:56:25;93809.91;;;4.42;69.23
71107;BME280;58763;47.982;11.516;2022-11-15T05:58:52;93805.88;;;4.40;69.21
71107;BME280;58763;47.982;11.516;2022-11-15T06:01:18;93805.06;;;4.39;69.46
71107;BME280;58763;47.982;11.516;2022-11-15T06:03:43;93805.06;;;4.39;69.48
71107;BME280;58763;47.982;11.516;2022-11-15T06:06:09;93803.47;;;4.38;69.35
71107;BME280;58763;47.982;11.516;2022-11-15T06:08:34;93806.16;;;4.38;69.66
71107;BME280;58763;47.982;11.516;2022-11-15T06:11:07;93801.09;;;4.47;69.11
71107;BME280;58763;47.982;11.516;2022-11-15T06:13:33;93809.19;;;4.52;68.67
71107;BME280;58763;47.982;11.516;2022-11-15T06:15:58;93799.75;;;4.44;68.76
71107;BME280;58763;47.982;11.516;2022-11-15T06:18:24;93793.34;;;4.45;68.79
71107;BME280;58763;47.982;11.516;2022-11-15T06:20:50;93802.44;;;4.44;69.15
71107;BME280;58763;47.982;11.516;2022-11-15T06:23:15;93800.56;;;4.45;69.28
71107;BME280;58763;47.982;11.516;2022-11-15T06:25:40;93797.06;;;4.44;69.08
71107;BME280;58763;47.982;11.516;2022-11-15T06:28:06;93800.28;;;4.46;69.38
71107;BME280;58763;47.982;11.516;2022-11-15T06:30:31;93797.63;;;4.46;69.15
71107;BME280;58763;47.982;11.516;2022-11-15T06:33:01;93787.75;;;4.52;69.16
71107;BME280;58763;47.982;11.516;2022-11-15T06:35:27;93783.22;;;4.52;68.96
71107;BME280;58763;47.982;11.516;2022-11-15T06:37:53;93785.34;;;4.55;69.22
71107;BME280;58763;47.982;11.516;2022-11-15T06:40:18;93783.84;;;4.69;68.30
71107;BME280;58763;47.982;11.516;2022-11-15T06:42:44;93795.09;;;4.66;68.46
71107;BME280;58763;47.982;11.516;2022-11-15T06:45:09;93796.16;;;4.65;68.53
71107;BME280;58763;47.982;11.516;2022-11-15T06:47:35;93802.59;;;4.69;68.47
71107;BME280;58763;47.982;11.516;2022-11-15T06:50:00;93797.75;;;4.61;68.20
71107;BME280;58763;47.982;11.516;2022-11-15T06:52:25;93799.31;;;4.57;68.65
71107;BME280;58763;47.982;11.516;2022-11-15T06:54:51;93802.59;;;4.69;69.04
71107;BME280;58763;47.982;11.516;2022-11-15T06:57:16;93799.72;;;4.76;67.96
71107;BME280;58763;47.982;11.516;2022-11-15T06:59:42;93804.50;;;4.74;67.99
71107;BME280;58763;47.982;11.516;2022-11-15T07:02:12;93803.72;;;4.73;68.38
71107;BME280;58763;47.982;11.516;2022-11-15T07:04:37;93799.41;;;4.72;68.64
71107;BME280;58763;47.982;11.516;2022-11-15T07:07:03;93792.03;;;4.95;68.54
71107;BME280;58763;47.982;11.516;2022-11-15T07:09:28;93796.63;;;5.04;68.08
71107;BME280;58763;47.982;11.516;2022-11-15T07:11:53;93817.03;;;5.10;67.35
71107;BME280;58763;47.982;11.516;2022-11-15T07:14:19;93811.69;;;5.15;67.57
71107;BME280;58763;47.982;11.516;2022-11-15T07:16:44;93813.84;;;5.18;67.06
71107;BME280;58763;47.982;11.516;2022-11-15T07:19:10;93817.09;;;5.20;67.53
71107;BME280;58763;47.982;11.516;2022-11-15T07:21:36;93821.66;;;5.25;67.51
71107;BME280;58763;47.982;11.516;2022-11-15T07:24:01;93820.06;;;5.29;67.59
71107;BME280;58763;47.982;11.516;2022-11-15T07:26:27;93823.03;;;5.37;67.29
71107;BME280;58763;47.982;11.516;2022-11-15T07:28:52;93825.22;;;5.40;68.32
71107;BME280;58763;47.982;11.516;2022-11-15T07:31:17;93815.06;;;5.47;68.83
71107;BME280;58763;47.982;11.516;2022-11-15T07:33:43;93807.81;;;5.58;68.95
71107;BME280;58763;47.982;11.516;2022-11-15T07:36:09;93804.66;;;5.66;68.59
71107;BME280;58763;47.982;11.516;2022-11-15T07:38:35;93806.63;;;5.86;68.12
71107;BME280;58763;47.982;11.516;2022-11-15T07:41:02;93802.06;;;6.01;67.62
71107;BME280;58763;47.982;11.516;2022-11-15T07:43:28;93806.13;;;6.24;67.71
71107;BME280;58763;47.982;11.516;2022-11-15T07:45:55;93795.66;;;6.28;67.40
71107;BME280;58763;47.982;11.516;2022-11-15T07:48:21;93798.88;;;6.30;65.48
71107;BME280;58763;47.982;11.516;2022-11-15T07:50:46;93785.16;;;6.31;65.06
71107;BME280;58763;47.982;11.516;2022-11-15T07:53:12;93786.78;;;6.37;65.67
71107;BME280;58763;47.982;11.516;2022-11-15T07:55:39;93773.34;;;6.47;65.50
71107;BME280;58763;47.982;11.516;2022-11-15T07:58:08;93777.09;;;6.51;65.65
71107;BME280;58763;47.982;11.516;2022-11-15T08:00:34;93772.78;;;6.70;64.78
71107;BME280;58763;47.982;11.516;2022-11-15T08:03:11;93765.81;;;6.74;65.05
71107;BME280;58763;47.982;11.516;2022-11-15T08:05:38;93761.19;;;6.90;64.28
71107;BME280;58763;47.982;11.516;2022-11-15T08:08:08;93759.84;;;6.97;64.11
71107;BME280;58763;47.982;11.516;2022-11-15T08:10:33;93758.19;;;7.07;67.84
71107;BME280;58763;47.982;11.516;2022-11-15T08:15:25;93764.28;;;7.32;67.98
71107;BME280;58763;47.982;11.516;2022-11-15T08:17:57;93756.75;;;7.34;67.46
71107;BME280;58763;47.982;11.516;2022-11-15T08:20:24;93743.72;;;7.51;65.93
71107;BME280;58763;47.982;11.516;2022-11-15T08:22:50;93744.69;;;7.71;65.40
71107;BME280;58763;47.982;11.516;2022-11-15T08:25:16;93743.09;;;7.75;64.34
71107;BME280;58763;47.982;11.516;2022-11-15T08:27:41;93742.75;;;7.86;63.32
71107;BME280;58763;47.982;11.516;2022-11-15T08:30:07;93746.06;;;8.12;62.17
71107;BME280;58763;47.982;11.516;2022-11-15T08:32:33;93744.84;;;8.33;62.65
71107;BME280;58763;47.982;11.516;2022-11-15T08:34:59;93742.19;;;8.57;62.96
71107;BME280;58763;47.982;11.516;2022-11-15T08:37:24;93740.34;;;8.81;62.32
71107;BME280;58763;47.982;11.516;2022-11-15T08:39:50;93739.06;;;9.02;61.74
71107;BME280;58763;47.982;11.516;2022-11-15T08:42:15;93744.34;;;9.36;61.35
71107;BME280;58763;47.982;11.516;2022-11-15T08:44:42;93737.31;;;9.58;65.52
71107;BME280;58763;47.982;11.516;2022-11-15T08:47:07;93739.56;;;9.70;64.82
71107;BME280;58763;47.982;11.516;2022-11-15T08:49:33;93741.28;;;9.85;63.80
71107;BME280;58763;47.982;11.516;2022-11-15T08:51:58;93738.03;;;9.83;63.27
71107;BME280;58763;47.982;11.516;2022-11-15T08:54:23;93727.66;;;10.08;62.32
71107;BME280;58763;47.982;11.516;2022-11-15T08:56:49;93735.34;;;10.20;59.96
71107;BME280;58763;47.982;11.516;2022-11-15T08:59:14;93739.00;;;10.48;57.97
71107;BME280;58763;47.982;11.516;2022-11-15T09:01:40;93733.06;;;10.78;57.26
71107;BME280;58763;47.982;11.516;2022-11-15T09:04:05;93732.69;;;10.84;56.40
71107;BME280;58763;47.982;11.516;2022-11-15T09:06:31;93728.34;;;10.83;56.54
71107;BME280;58763;47.982;11.516;2022-11-15T09:08:56;93737.38;;;10.92;56.64
71107;BME280;58763;47.982;11.516;2022-11-15T09:11:22;93722.38;;;11.00;55.95
71107;BME280;58763;47.982;11.516;2022-11-15T09:13:49;93715.97;;;11.09;54.66
71107;BME280;58763;47.982;11.516;2022-11-15T09:16:14;93712.28;;;11.19;54.22
71107;BME280;58763;47.982;11.516;2022-11-15T09:18:41;93712.69;;;11.26;54.23
71107;BME280;58763;47.982;11.516;2022-11-15T09:21:07;93708.78;;;11.46;52.80
71107;BME280;58763;47.982;11.516;2022-11-15T09:23:32;93707.22;;;11.67;52.21
71107;BME280;58763;47.982;11.516;2022-11-15T09:26:00;93708.13;;;11.90;52.04
71107;BME280;58763;47.982;11.516;2022-11-15T09:28:27;93707.28;;;12.03;51.91
71107;BME280;58763;47.982;11.516;2022-11-15T09:31:05;93692.09;;;12.15;52.03
71107;BME280;58763;47.982;11.516;2022-11-15T09:33:31;93688.47;;;12.20;51.92
71107;BME280;58763;47.982;11.516;2022-11-15T09:36:01;93686.28;;;12.30;52.03
71107;BME280;58763;47.982;11.516;2022-11-15T09:38:27;93686.38;;;12.39;51.01
71107;BME280;58763;47.982;11.516;2022-11-15T09:41:07;93681.69;;;12.53;51.16
71107;BME280;58763;47.982;11.516;2022-11-15T09:43:48;93683.63;;;12.61;51.78
71107;BME280;58763;47.982;11.516;2022-11-15T09:46:35;93678.94;;;12.75;52.46
71107;BME280;58763;47.982;11.516;2022-11-15T09:49:04;93675.63;;;12.87;52.88
71107;BME280;58763;47.982;11.516;2022-11-15T09:51:37;93666.91;;;12.98;53.23
71107;BME280;58763;47.982;11.516;2022-11-15T09:57:02;93668.34;;;13.27;50.53
71107;BME280;58763;47.982;11.516;2022-11-15T09:59:44;93654.63;;;13.32;50.35
71107;BME280;58763;47.982;11.516;2022-11-15T10:02:23;93660.69;;;13.29;51.54
71107;BME280;58763;47.982;11.516;2022-11-15T10:04:53;93650.94;;;13.28;50.47
71107;BME280;58763;47.982;11.516;2022-11-15T10:07:25;93653.19;;;13.34;50.55
71107;BME280;58763;47.982;11.516;2022-11-15T10:09:54;93652.53;;;13.37;51.35
71107;BME280;58763;47.982;11.516;2022-11-15T10:12:25;93649.88;;;13.46;51.47
71107;BME280;58763;47.982;11.516;2022-11-15T10:15:00;93652.59;;;13.54;52.32
71107;BME280;58763;47.982;11.516;2022-11-15T10:20:20;93641.25;;;13.61;52.86
71107;BME280;58763;47.982;11.516;2022-11-15T10:28:16;93629.28;;;13.70;51.53
71107;BME280;58763;47.982;11.516;2022-11-15T10:30:45;93629.81;;;13.81;51.62
71107;BME280;58763;47.982;11.516;2022-11-15T10:33:27;93608.22;;;13.84;51.65
71107;BME280;58763;47.982;11.516;2022-11-15T10:41:13;93606.28;;;14.11;50.93
71107;BME280;58763;47.982;11.516;2022-11-15T10:43:38;93598.94;;;14.03;50.66
71107;BME280;58763;47.982;11.516;2022-11-15T10:46:22;93597.16;;;14.15;50.40
71107;BME280;58763;47.982;11.516;2022-11-15T10:48:48;93589.03;;;13.98;50.88
71107;BME280;58763;47.982;11.516;2022-11-15T10:51:22;93584.38;;;14.16;50.79
71107;BME280;58763;47.982;11.516;2022-11-15T10:53:54;93577.19;;;14.11;51.02
71107;BME280;58763;47.982;11.516;2022-11-15T10:56:22;93578.44;;;14.31;51.11
71107;BME280;58763;47.982;11.516;2022-11-15T10:58:53;93571.38;;;14.47;51.14
71107;BME280;58763;47.982;11.516;2022-11-15T11:01:23;93568.66;;;14.56;50.35
71107;BME280;58763;47.982;11.516;2022-11-15T11:04:02;93562.53;;;14.59;45.84
71107;BME280;58763;47.982;11.516;2022-11-15T11:06:28;93557.59;;;14.61;48.54
71107;BME280;58763;47.982;11.516;2022-11-15T11:09:00;93554.50;;;14.71;50.05
71107;BME280;58763;47.982;11.516;2022-11-15T11:11:50;93555.25;;;14.80;50.28
71107;BME280;58763;47.982;11.516;2022-11-15T11:14:20;93542.63;;;14.84;49.24
71107;BME280;58763;47.982;11.516;2022-11-15T11:16:50;93533.13;;;14.90;49.04
71107;BME280;58763;47.982;11.516;2022-11-15T11:35:25;93515.00;;;15.23;47.89
71107;BME280;58763;47.982;11.516;2022-11-15T11:38:00;93519.25;;;15.12;48.54
71107;BME280;58763;47.982;11.516;2022-11-15T11:40:43;93523.44;;;15.09;48.05
71107;BME280;58763;47.982;11.516;2022-11-15T11:45:53;93516.81;;;15.19;47.40
71107;BME280;58763;47.982;11.516;2022-11-15T11:48:44;93514.16;;;15.31;47.85
71107;BME280;58763;47.982;11.516;2022-11-15T11:51:20;93507.69;;;15.44;48.20
71107;BME280;58763;47.982;11.516;2022-11-15T11:53:56;93500.53;;;15.31;46.60
71107;BME280;58763;47.982;11.516;2022-11-15T11:56:27;93496.22;;;15.30;46.58
71107;BME280;58763;47.982;11.516;2022-11-15T11:58:56;93496.34;;;15.34;47.29
71107;BME280;58763;47.982;11.516;2022-11-15T12:01:31;93491.81;;;15.17;47.34
71107;BME280;58763;47.982;11.516;2022-11-15T12:04:08;93498.03;;;14.97;48.61
71107;BME280;58763;47.982;11.516;2022-11-15T12:09:15;93485.06;;;14.94;47.03
71107;BME280;58763;47.982;11.516;2022-11-15T12:14:34;93490.03;;;14.92;45.75
71107;BME280;58763;47.982;11.516;2022-11-15T12:17:01;93493.28;;;14.85;46.52
71107;BME280;58763;47.982;11.516;2022-11-15T12:19:29;93491.38;;;14.86;46.40
71107;BME280;58763;47.982;11.516;2022-11-15T12:22:17;93477.06;;;14.97;46.34
71107;BME280;58763;47.982;11.516;2022-11-15T12:27:56;93474.78;;;14.99;45.06
71107;BME280;58763;47.982;11.516;2022-11-15T12:30:25;93475.41;;;15.05;44.58
71107;BME280;58763;47.982;11.516;2022-11-15T12:32:58;93469.88;;;14.93;42.35
71107;BME280;58763;47.982;11.516;2022-11-15T12:35:37;93460.22;;;14.75;42.31
71107;BME280;58763;47.982;11.516;2022-11-15T12:38:04;93457.41;;;14.63;42.01
71107;BME280;58763;47.982;11.516;2022-11-15T12:40:38;93473.25;;;14.61;42.68
71107;BME280;58763;47.982;11.516;2022-11-15T12:43:38;93472.22;;;14.74;42.79
71107;BME280;58763;47.982;11.516;2022-11-15T12:46:05;93455.13;;;14.65;43.39
71107;BME280;58763;47.982;11.516;2022-11-15T12:51:03;93451.31;;;14.57;45.03
71107;BME280;58763;47.982;11.516;2022-11-15T12:53:31;93449.63;;;14.73;45.71
71107;BME280;58763;47.982;11.516;2022-11-15T13:04:22;93439.75;;;15.18;46.12
71107;BME280;58763;47.982;11.516;2022-11-15T13:06:59;93446.94;;;15.23;44.73
71107;BME280;58763;47.982;11.516;2022-11-15T13:12:04;93440.06;;;15.17;43.47
71107;BME280;58763;47.982;11.516;2022-11-15T13:14:51;93439.47;;;15.11;43.52
71107;BME280;58763;47.982;11.516;2022-11-15T13:22:40;93437.94;;;15.02;44.47
71107;BME280;58763;47.982;11.516;2022-11-15T13:27:56;93436.28;;;14.89;45.13
71107;BME280;58763;47.982;11.516;2022-11-15T13:30:25;93441.84;;;14.92;45.83
71107;BME280;58763;47.982;11.516;2022-11-15T13:32:51;93432.03;;;15.00;45.61
71107;BME280;58763;47.982;11.516;2022-11-15T13:35:23;93443.84;;;15.04;46.10
71107;BME280;58763;47.982;11.516;2022-11-15T13:37:50;93443.47;;;15.14;45.78
71107;BME280;58763;47.982;11.516;2022-11-15T13:40:37;93436.16;;;15.06;46.17
71107;BME280;58763;47.982;11.516;2022-11-15T13:46:07;93432.06;;;14.91;44.81
71107;BME280;58763;47.982;11.516;2022-11-15T13:48:33;93432.41;;;14.90;44.29
71107;BME280;58763;47.982;11.516;2022-11-15T13:51:00;93438.72;;;14.82;44.32
71107;BME280;58763;47.982;11.516;2022-11-15T13:53:27;93432.13;;;14.83;44.42
71107;BME280;58763;47.982;11.516;2022-11-15T13:55:55;93433.78;;;14.75;45.30
71107;BME280;58763;47.982;11.516;2022-11-15T13:58:21;93446.78;;;14.70;46.93
71107;BME280;58763;47.982;11.516;2022-11-15T14:00:47;93434.00;;;14.70;48.15
71107;BME280;58763;47.982;11.516;2022-11-15T14:05:41;93451.09;;;14.71;48.70
71107;BME280;58763;47.982;11.516;2022-11-15T14:10:41;93439.94;;;14.64;49.18
71107;BME280;58763;47.982;11.516;2022-11-15T14:13:26;93453.91;;;14.53;49.69
71107;BME280;58763;47.982;11.516;2022-11-15T14:15:52;93444.63;;;14.54;50.29
71107;BME280;58763;47.982;11.516;2022-11-15T14:18:41;93441.16;;;14.28;50.67
71107;BME280;58763;47.982;11.516;2022-11-15T14:21:08;93436.59;;;14.20;50.40
71107;BME280;58763;47.982;11.516;2022-11-15T14:23:33;93447.78;;;14.19;50.58
71107;BME280;58763;47.982;11.516;2022-11-15T14:25:59;93450.34;;;14.15;51.31
71107;BME280;58763;47.982;11.516;2022-11-15T14:30:52;93448.09;;;14.17;49.79
71107;BME280;58763;47.982;11.516;2022-11-15T14:35:55;93455.50;;;14.08;50.64
71107;BME280;58763;47.982;11.516;2022-11-15T14:38:25;93452.94;;;14.03;51.51
71107;BME280;58763;47.982;11.516;2022-11-15T14:40:51;93449.91;;;14.05;51.38
71107;BME280;58763;47.982;11.516;2022-11-15T14:43:16;93444.19;;;13.98;50.13
71107;BME280;58763;47.982;11.516;2022-11-15T14:45:42;93441.63;;;13.93;49.80
71107;BME280;58763;47.982;11.516;2022-11-15T14:48:08;93446.09;;;13.97;50.40
71107;BME280;58763;47.982;11.516;2022-11-15T14:50:34;93444.50;;;13.96;50.68
71107;BME280;58763;47.982;11.516;2022-11-15T14:53:00;93445.94;;;13.94;51.78